createdAt,value
2018-05-23T00:00:35.940Z,15.43
2018-05-23T00:01:35.923Z,15.44
2018-05-23T00:02:35.967Z,15.44
2018-05-23T00:03:35.903Z,15.43
2018-05-23T00:04:35.875Z,15.43
2018-05-23T00:05:35.863Z,15.49
2018-05-23T00:06:35.847Z,15.49
2018-05-23T00:07:35.826Z,15.53
2018-05-23T00:08:35.866Z,15.44
2018-05-23T00:09:35.795Z,15.41
2018-05-23T00:10:35.778Z,15.43
2018-05-23T00:11:35.757Z,15.44
2018-05-23T00:12:35.746Z,15.39
2018-05-23T00:13:35.729Z,15.34
2018-05-23T00:14:35.726Z,15.31
2018-05-23T00:15:35.696Z,15.28
2018-05-23T00:16:35.679Z,15.36
2018-05-23T00:17:35.665Z,15.34
2018-05-23T00:18:35.653Z,15.41
2018-05-23T00:19:35.641Z,15.38
2018-05-23T00:20:35.614Z,15.34
2018-05-23T00:21:35.600Z,15.34
2018-05-23T00:22:35.585Z,15.25
2018-05-23T00:23:35.568Z,15.31
2018-05-23T00:24:35.563Z,15.25
2018-05-23T00:25:35.540Z,15.44
2018-05-23T00:26:35.519Z,15.21
2018-05-23T00:27:35.507Z,15.21
2018-05-23T00:28:35.487Z,15.19
2018-05-23T00:29:35.486Z,15.17
2018-05-23T00:30:35.465Z,15.21
2018-05-23T00:31:35.438Z,15.21
2018-05-23T00:32:35.422Z,15.21
2018-05-23T00:33:35.404Z,15.23
2018-05-23T00:34:35.391Z,15.17
2018-05-23T00:35:35.383Z,15.17
2018-05-23T00:36:35.358Z,15.09
2018-05-23T00:37:35.340Z,15.19
2018-05-23T00:38:35.327Z,15.23
2018-05-23T00:39:35.311Z,15.14
2018-05-23T00:40:35.307Z,15.20
2018-05-23T00:41:35.275Z,15.27
2018-05-23T00:42:35.258Z,15.25
2018-05-23T00:43:35.242Z,15.25
2018-05-23T00:44:35.227Z,15.25
2018-05-23T00:45:35.223Z,15.27
2018-05-23T00:46:35.195Z,15.31
2018-05-23T00:47:35.182Z,15.23
2018-05-23T00:48:35.166Z,15.20
2018-05-23T00:49:35.147Z,15.21
2018-05-23T00:50:35.142Z,15.25
2018-05-23T00:51:35.119Z,15.16
2018-05-23T00:52:35.098Z,15.19
2018-05-23T00:53:35.088Z,15.13
2018-05-23T00:54:35.068Z,15.16
2018-05-23T00:55:35.072Z,15.11
2018-05-23T00:56:35.033Z,15.10
2018-05-23T00:57:35.023Z,15.11
2018-05-23T00:58:35.000Z,15.10
2018-05-23T00:59:34.982Z,15.13
2018-05-23T01:00:34.969Z,15.11
2018-05-23T01:01:34.967Z,15.06
2018-05-23T01:02:34.941Z,15.07
2018-05-23T01:03:34.916Z,14.99
2018-05-23T01:04:34.903Z,14.96
2018-05-23T01:05:34.886Z,14.99
2018-05-23T01:06:34.883Z,14.91
2018-05-23T01:07:34.854Z,14.89
2018-05-23T01:08:34.847Z,14.88
2018-05-23T01:09:34.822Z,14.83
2018-05-23T01:10:34.808Z,14.77
2018-05-23T01:11:34.798Z,14.83
2018-05-23T01:12:34.771Z,14.86
2018-05-23T01:13:34.755Z,14.84
2018-05-23T01:14:34.739Z,14.81
2018-05-23T01:15:34.721Z,14.72
2018-05-23T01:16:34.721Z,14.73
2018-05-23T01:17:34.691Z,14.88
2018-05-23T01:18:34.670Z,14.83
2018-05-23T01:19:34.657Z,14.84
2018-05-23T01:20:34.640Z,14.88
2018-05-23T01:21:34.630Z,14.84
2018-05-23T01:22:34.620Z,14.75
2018-05-23T01:23:34.595Z,14.73
2018-05-23T01:24:34.578Z,14.72
2018-05-23T01:25:34.560Z,14.70
2018-05-23T01:26:34.542Z,14.77
2018-05-23T01:27:34.536Z,14.73
2018-05-23T01:28:34.509Z,14.77
2018-05-23T01:29:34.490Z,14.65
2018-05-23T01:30:34.477Z,14.68
2018-05-23T01:31:34.464Z,14.69
2018-05-23T01:32:34.464Z,14.62
2018-05-23T01:33:34.426Z,14.78
2018-05-23T01:34:34.411Z,14.65
2018-05-23T01:35:34.395Z,14.68
2018-05-23T01:36:34.376Z,14.55
2018-05-23T01:37:34.364Z,14.58
2018-05-23T01:38:34.358Z,14.64
2018-05-23T01:39:34.327Z,14.72
2018-05-23T01:40:34.318Z,14.78
2018-05-23T01:41:34.300Z,14.64
2018-05-23T01:42:34.284Z,14.58
2018-05-23T01:43:34.277Z,14.77
2018-05-23T01:44:34.245Z,14.61
2018-05-23T01:45:34.232Z,14.77
2018-05-23T01:46:34.214Z,14.54
2018-05-23T01:47:34.194Z,14.62
2018-05-23T01:48:34.193Z,14.54
2018-05-23T01:49:34.165Z,14.55
2018-05-23T01:50:34.149Z,14.57
2018-05-23T01:51:34.131Z,14.58
2018-05-23T01:52:34.116Z,14.47
2018-05-23T01:53:34.119Z,14.58
2018-05-23T01:54:34.083Z,14.64
2018-05-23T01:55:34.068Z,14.65
2018-05-23T01:56:34.049Z,14.52
2018-05-23T01:57:34.043Z,14.54
2018-05-23T01:58:34.013Z,14.58
2018-05-23T01:59:34.010Z,14.58
2018-05-23T02:00:33.986Z,14.61
2018-05-23T02:01:33.964Z,14.54
2018-05-23T02:02:33.950Z,14.57
2018-05-23T02:03:33.931Z,14.54
2018-05-23T02:04:33.935Z,14.50
2018-05-23T02:05:33.907Z,14.46
2018-05-23T02:06:33.882Z,14.42
2018-05-23T02:07:33.867Z,14.33
2018-05-23T02:08:33.848Z,14.46
2018-05-23T02:09:33.844Z,14.42
2018-05-23T02:10:33.818Z,14.39
2018-05-23T02:11:33.800Z,14.33
2018-05-23T02:12:33.786Z,14.39
2018-05-23T02:13:33.766Z,14.36
2018-05-23T02:14:33.764Z,14.36
2018-05-23T02:15:33.733Z,14.35
2018-05-23T02:16:33.713Z,14.36
2018-05-23T02:17:33.700Z,14.39
2018-05-23T02:18:33.750Z,14.33
2018-05-23T02:19:33.677Z,14.33
2018-05-23T02:20:33.650Z,14.33
2018-05-23T02:21:33.634Z,14.33
2018-05-23T02:22:33.620Z,14.33
2018-05-23T02:23:33.599Z,14.36
2018-05-23T02:24:33.602Z,14.29
2018-05-23T02:25:33.570Z,14.28
2018-05-23T02:26:33.549Z,14.33
2018-05-23T02:27:33.531Z,14.33
2018-05-23T02:28:33.519Z,14.33
2018-05-23T02:29:33.514Z,14.21
2018-05-23T02:30:33.498Z,14.35
2018-05-23T02:31:33.471Z,14.28
2018-05-23T02:32:33.451Z,14.27
2018-05-23T02:33:33.432Z,14.28
2018-05-23T02:34:33.515Z,14.29
2018-05-23T02:35:33.421Z,14.24
2018-05-23T02:36:33.391Z,14.27
2018-05-23T02:37:33.366Z,14.22
2018-05-23T02:38:33.349Z,14.22
2018-05-23T02:39:33.333Z,14.29
2018-05-23T02:40:33.336Z,14.20
2018-05-23T02:41:33.302Z,14.25
2018-05-23T02:42:33.283Z,14.20
2018-05-23T02:43:33.269Z,14.27
2018-05-23T02:44:33.255Z,14.24
2018-05-23T02:45:33.228Z,14.14
2018-05-23T02:46:33.225Z,14.18
2018-05-23T02:47:33.199Z,14.17
2018-05-23T02:48:33.186Z,14.07
2018-05-23T02:49:33.167Z,14.14
2018-05-23T02:50:33.151Z,14.15
2018-05-23T02:51:33.144Z,14.21
2018-05-23T02:52:33.118Z,14.12
2018-05-23T02:53:33.103Z,14.18
2018-05-23T02:54:33.079Z,14.07
2018-05-23T02:55:33.063Z,14.10
2018-05-23T02:56:33.056Z,14.15
2018-05-23T02:57:33.031Z,14.09
2018-05-23T02:58:33.016Z,14.14
2018-05-23T02:59:32.997Z,14.06
2018-05-23T03:00:32.983Z,14.07
2018-05-23T03:01:32.981Z,14.04
2018-05-23T03:02:32.948Z,14.09
2018-05-23T03:03:32.928Z,14.06
2018-05-23T03:04:32.915Z,14.09
2018-05-23T03:05:32.901Z,14.14
2018-05-23T03:06:32.876Z,14.20
2018-05-23T03:07:32.874Z,14.21
2018-05-23T03:08:32.845Z,14.25
2018-05-23T03:09:32.830Z,14.25
2018-05-23T03:10:32.811Z,14.18
2018-05-23T03:11:32.796Z,14.29
2018-05-23T03:12:32.787Z,14.32
2018-05-23T03:13:32.764Z,14.24
2018-05-23T03:14:32.746Z,14.27
2018-05-23T03:15:32.725Z,14.29
2018-05-23T03:16:32.713Z,14.29
2018-05-23T03:17:32.705Z,14.28
2018-05-23T03:18:32.676Z,14.28
2018-05-23T03:19:32.659Z,14.24
2018-05-23T03:20:32.644Z,14.27
2018-05-23T03:21:32.631Z,14.24
2018-05-23T03:22:32.630Z,14.22
2018-05-23T03:23:32.591Z,14.18
2018-05-23T03:24:32.576Z,14.27
2018-05-23T03:25:32.559Z,14.28
2018-05-23T03:26:32.543Z,14.25
2018-05-23T03:27:32.526Z,14.33
2018-05-23T03:28:32.519Z,14.20
2018-05-23T03:29:32.492Z,14.28
2018-05-23T03:30:32.483Z,14.20
2018-05-23T03:31:32.463Z,14.22
2018-05-23T03:32:32.448Z,14.29
2018-05-23T03:33:32.434Z,14.33
2018-05-23T03:34:32.410Z,14.35
2018-05-23T03:35:32.395Z,14.43
2018-05-23T03:36:32.375Z,14.39
2018-05-23T03:37:32.359Z,14.37
2018-05-23T03:38:32.352Z,14.40
2018-05-23T03:39:32.326Z,14.35
2018-05-23T03:40:32.307Z,14.39
2018-05-23T03:41:32.289Z,14.36
2018-05-23T03:44:05.337Z,14.40
2018-05-23T03:45:05.311Z,14.42
2018-05-23T03:46:05.293Z,14.32
2018-05-23T03:47:05.275Z,14.37
2018-05-23T03:48:05.259Z,14.40
2018-05-23T03:49:05.253Z,14.37
2018-05-23T03:50:05.229Z,14.42
2018-05-23T03:51:05.215Z,14.43
2018-05-23T03:52:05.193Z,14.46
2018-05-23T03:53:05.176Z,14.45
2018-05-23T03:54:05.169Z,14.50
2018-05-23T03:55:05.141Z,14.57
2018-05-23T03:56:05.126Z,14.51
2018-05-23T03:57:05.109Z,14.51
2018-05-23T03:58:05.092Z,14.47
2018-05-23T03:59:05.090Z,14.61
2018-05-23T04:00:05.064Z,14.55
2018-05-23T04:01:05.046Z,14.62
2018-05-23T04:02:05.027Z,14.62
2018-05-23T04:03:05.009Z,14.51
2018-05-23T04:04:04.993Z,14.57
2018-05-23T04:05:04.985Z,14.58
2018-05-23T04:06:04.999Z,14.55
2018-05-23T04:07:04.943Z,14.54
2018-05-23T04:08:04.925Z,14.72
2018-05-23T04:09:04.910Z,14.70
2018-05-23T04:10:04.902Z,14.70
2018-05-23T04:11:04.876Z,14.72
2018-05-23T04:12:04.865Z,14.70
2018-05-23T04:13:04.843Z,14.72
2018-05-23T04:14:04.826Z,14.77
2018-05-23T04:15:04.826Z,14.72
2018-05-23T04:16:04.793Z,14.70
2018-05-23T04:17:04.777Z,14.78
2018-05-23T04:18:04.760Z,14.70
2018-05-23T04:19:04.755Z,14.75
2018-05-23T04:20:04.726Z,14.72
2018-05-23T04:21:04.725Z,14.78
2018-05-23T04:22:04.693Z,14.73
2018-05-23T04:23:04.677Z,14.78
2018-05-23T04:24:04.724Z,14.75
2018-05-23T04:25:04.657Z,14.73
2018-05-23T04:26:04.643Z,14.78
2018-05-23T04:27:04.610Z,14.78
2018-05-23T04:28:04.593Z,14.73
2018-05-23T04:29:04.578Z,14.77
2018-05-23T04:30:04.560Z,14.77
2018-05-23T04:31:04.547Z,14.73
2018-05-23T04:32:04.538Z,14.78
2018-05-23T04:33:04.512Z,14.75
2018-05-23T04:34:04.496Z,14.75
2018-05-23T04:35:04.480Z,14.75
2018-05-23T04:36:04.462Z,14.73
2018-05-23T04:37:04.455Z,14.77
2018-05-23T04:38:04.430Z,14.94
2018-05-23T04:39:04.415Z,14.77
2018-05-23T04:40:04.396Z,14.83
2018-05-23T04:41:04.380Z,14.84
2018-05-23T04:42:04.377Z,14.89
2018-05-23T04:43:04.349Z,14.94
2018-05-23T04:44:04.330Z,14.88
2018-05-23T04:45:04.315Z,14.88
2018-05-23T04:46:04.297Z,14.92
2018-05-23T04:47:04.293Z,14.92
2018-05-23T04:48:04.267Z,14.86
2018-05-23T04:49:04.249Z,14.88
2018-05-23T04:50:04.235Z,14.92
2018-05-23T04:51:04.216Z,14.94
2018-05-23T04:52:04.219Z,14.84
2018-05-23T04:53:04.183Z,14.95
2018-05-23T04:54:04.168Z,14.98
2018-05-23T04:55:04.154Z,14.99
2018-05-23T04:56:04.134Z,14.96
2018-05-23T04:57:04.119Z,14.94
2018-05-23T04:58:04.118Z,14.98
2018-05-23T04:59:04.086Z,15.02
2018-05-23T05:00:04.069Z,15.07
2018-05-23T05:01:04.055Z,15.02
2018-05-23T05:02:04.039Z,15.14
2018-05-23T05:03:04.032Z,15.13
2018-05-23T05:04:04.005Z,15.07
2018-05-23T05:05:03.986Z,15.09
2018-05-23T05:06:03.971Z,15.16
2018-05-23T05:07:03.954Z,15.13
2018-05-23T05:08:03.949Z,15.09
2018-05-23T05:09:03.924Z,15.13
2018-05-23T05:10:03.953Z,15.20
2018-05-23T05:11:03.888Z,15.23
2018-05-23T05:12:03.878Z,15.20
2018-05-23T05:13:03.871Z,15.23
2018-05-23T05:14:03.840Z,15.25
2018-05-23T05:15:03.823Z,15.25
2018-05-23T05:16:03.812Z,15.23
2018-05-23T05:17:03.791Z,15.23
2018-05-23T05:18:03.775Z,15.38
2018-05-23T05:19:03.768Z,15.31
2018-05-23T05:20:03.742Z,15.31
2018-05-23T05:21:03.727Z,15.38
2018-05-23T05:22:03.710Z,15.41
2018-05-23T05:23:03.697Z,15.34
2018-05-23T05:24:03.688Z,15.36
2018-05-23T05:25:03.723Z,15.41
2018-05-23T05:26:03.645Z,15.50
2018-05-23T05:27:03.629Z,15.50
2018-05-23T05:28:03.614Z,15.50
2018-05-23T05:29:03.608Z,15.47
2018-05-23T05:30:03.581Z,15.47
2018-05-23T05:31:03.570Z,15.47
2018-05-23T05:32:03.552Z,15.50
2018-05-23T05:33:03.530Z,15.49
2018-05-23T05:34:03.531Z,15.51
2018-05-23T05:35:03.500Z,15.54
2018-05-23T05:36:03.482Z,15.59
2018-05-23T05:37:03.467Z,15.59
2018-05-23T05:38:03.452Z,15.68
2018-05-23T05:39:03.438Z,15.65
2018-05-23T05:40:03.430Z,15.69
2018-05-23T05:41:03.402Z,15.74
2018-05-23T05:42:03.387Z,15.82
2018-05-23T05:43:03.373Z,15.84
2018-05-23T05:44:03.357Z,15.83
2018-05-23T05:45:03.349Z,15.96
2018-05-23T05:46:03.323Z,16.00
2018-05-23T05:47:03.346Z,16.04
2018-05-23T05:48:03.291Z,16.01
2018-05-23T05:49:03.276Z,16.01
2018-05-23T05:50:03.270Z,16.02
2018-05-23T05:51:03.248Z,16.02
2018-05-23T05:52:03.227Z,16.01
2018-05-23T05:53:03.213Z,16.09
2018-05-23T05:54:03.199Z,16.17
2018-05-23T05:55:03.200Z,16.20
2018-05-23T05:56:03.164Z,16.14
2018-05-23T05:57:03.148Z,16.07
2018-05-23T05:58:03.133Z,16.09
2018-05-23T05:59:03.117Z,16.11
2018-05-23T06:00:03.099Z,16.08
2018-05-23T06:01:03.095Z,16.07
2018-05-23T06:02:03.127Z,16.20
2018-05-23T06:03:03.054Z,16.15
2018-05-23T06:04:03.040Z,16.09
2018-05-23T06:05:03.022Z,16.30
2018-05-23T06:06:03.018Z,16.38
2018-05-23T06:07:02.992Z,16.42
2018-05-23T06:08:02.976Z,16.50
2018-05-23T06:09:02.958Z,16.53
2018-05-23T06:10:02.945Z,16.68
2018-05-23T06:11:02.941Z,16.68
2018-05-23T06:12:02.913Z,16.81
2018-05-23T06:13:02.896Z,16.75
2018-05-23T06:14:02.882Z,16.71
2018-05-23T06:15:02.879Z,16.85
2018-05-23T06:16:02.921Z,17.00
2018-05-23T06:17:02.836Z,16.97
2018-05-23T06:18:02.824Z,17.06
2018-05-23T06:19:02.805Z,17.08
2018-05-23T06:20:02.791Z,17.06
2018-05-23T06:21:02.790Z,17.06
2018-05-23T06:22:02.760Z,16.98
2018-05-23T06:23:02.748Z,17.03
2018-05-23T06:24:02.730Z,17.03
2018-05-23T06:25:02.715Z,17.04
2018-05-23T06:26:02.699Z,16.98
2018-05-23T06:27:02.698Z,17.00
2018-05-23T06:28:02.671Z,16.98
2018-05-23T06:29:02.655Z,17.16
2018-05-23T06:30:02.641Z,17.26
2018-05-23T06:31:02.625Z,17.21
2018-05-23T06:32:02.618Z,17.38
2018-05-23T06:33:02.596Z,17.41
2018-05-23T06:34:02.581Z,17.48
2018-05-23T06:35:02.567Z,17.48
2018-05-23T06:36:02.554Z,17.40
2018-05-23T06:37:02.543Z,17.34
2018-05-23T06:38:02.518Z,17.22
2018-05-23T06:39:02.507Z,17.33
2018-05-23T06:40:02.490Z,17.31
2018-05-23T06:41:02.473Z,17.49
2018-05-23T06:42:02.483Z,17.37
2018-05-23T06:43:02.447Z,17.58
2018-05-23T06:44:02.432Z,17.84
2018-05-23T06:45:02.417Z,17.90
2018-05-23T06:46:02.403Z,18.10
2018-05-23T06:47:02.391Z,18.18
2018-05-23T06:48:02.387Z,18.27
2018-05-23T06:49:02.357Z,18.51
2018-05-23T06:50:02.383Z,18.47
2018-05-23T06:51:02.331Z,18.51
2018-05-23T06:52:02.313Z,18.82
2018-05-23T06:53:02.309Z,18.85
2018-05-23T06:54:02.286Z,19.19
2018-05-23T06:55:02.291Z,19.19
2018-05-23T06:56:02.256Z,19.04
2018-05-23T06:57:02.247Z,18.63
2018-05-23T06:58:02.254Z,18.69
2018-05-23T06:59:02.214Z,18.81
2018-05-23T07:00:02.203Z,18.72
2018-05-23T07:01:02.189Z,18.62
2018-05-23T07:02:02.174Z,18.42
2018-05-23T07:03:02.180Z,18.57
2018-05-23T07:04:02.145Z,18.30
2018-05-23T07:05:02.137Z,18.37
2018-05-23T07:06:02.117Z,18.45
2018-05-23T07:07:02.102Z,18.52
2018-05-23T07:08:02.115Z,18.57
2018-05-23T07:09:02.079Z,18.66
2018-05-23T07:10:02.060Z,18.57
2018-05-23T07:11:02.105Z,18.60
2018-05-23T07:12:02.036Z,18.66
2018-05-23T07:13:02.021Z,18.85
2018-05-23T07:14:02.014Z,18.84
2018-05-23T07:15:01.995Z,18.85
2018-05-23T07:16:01.975Z,18.98
2018-05-23T07:17:01.965Z,18.99
2018-05-23T07:18:02.120Z,19.14
2018-05-23T07:19:01.955Z,19.04
2018-05-23T07:20:01.925Z,18.95
2018-05-23T07:21:01.907Z,18.94
2018-05-23T07:22:01.892Z,19.19
2018-05-23T07:23:01.881Z,19.06
2018-05-23T07:24:01.940Z,18.92
2018-05-23T07:25:01.854Z,18.95
2018-05-23T07:26:01.841Z,19.07
2018-05-23T07:27:01.827Z,18.98
2018-05-23T07:28:01.810Z,19.13
2018-05-23T07:29:01.820Z,19.16
2018-05-23T07:30:01.786Z,19.10
2018-05-23T07:31:01.772Z,19.04
2018-05-23T07:32:01.760Z,18.94
2018-05-23T07:33:01.751Z,19.02
2018-05-23T07:34:01.729Z,19.00
2018-05-23T07:35:01.760Z,18.92
2018-05-23T07:36:01.703Z,19.10
2018-05-23T07:37:01.692Z,19.14
2018-05-23T07:38:01.675Z,18.81
2018-05-23T07:39:01.664Z,18.76
2018-05-23T07:40:01.660Z,18.80
2018-05-23T07:41:01.635Z,18.73
2018-05-23T07:42:01.622Z,18.81
2018-05-23T07:43:01.609Z,19.04
2018-05-23T07:44:01.597Z,18.78
2018-05-23T07:45:01.612Z,18.85
2018-05-23T07:46:01.581Z,18.73
2018-05-23T07:47:01.560Z,18.69
2018-05-23T07:48:01.545Z,18.76
2018-05-23T07:49:01.531Z,18.55
2018-05-23T07:50:01.531Z,18.75
2018-05-23T07:51:01.500Z,18.75
2018-05-23T07:52:01.496Z,18.80
2018-05-23T07:53:01.481Z,18.90
2018-05-23T07:54:01.473Z,18.94
2018-05-23T07:55:01.449Z,18.98
2018-05-23T07:56:01.444Z,19.16
2018-05-23T07:57:01.423Z,19.22
2018-05-23T07:58:01.406Z,19.21
2018-05-23T07:59:01.394Z,18.91
2018-05-23T08:00:01.380Z,18.82
2018-05-23T08:01:01.377Z,18.88
2018-05-23T08:02:01.353Z,19.07
2018-05-23T08:03:01.339Z,19.08
2018-05-23T08:04:01.326Z,18.99
2018-05-23T08:05:01.314Z,19.08
2018-05-23T08:06:01.311Z,19.08
2018-05-23T08:07:01.288Z,19.22
2018-05-23T08:08:01.273Z,19.32
2018-05-23T08:09:01.259Z,19.32
2018-05-23T08:10:01.248Z,19.55
2018-05-23T08:11:01.245Z,19.92
2018-05-23T08:12:01.218Z,20.14
2018-05-23T08:13:01.207Z,20.20
2018-05-23T08:14:01.195Z,20.35
2018-05-23T08:15:01.184Z,20.36
2018-05-23T08:16:01.188Z,20.41
2018-05-23T08:17:01.152Z,20.52
2018-05-23T08:18:01.141Z,20.42
2018-05-23T08:19:01.129Z,20.66
2018-05-23T08:20:01.115Z,20.18
2018-05-23T08:21:01.104Z,20.32
2018-05-23T08:22:01.096Z,20.47
2018-05-23T08:23:01.074Z,20.48
2018-05-23T08:24:01.062Z,20.74
2018-05-23T08:25:01.052Z,20.82
2018-05-23T08:26:01.037Z,21.07
2018-05-23T08:27:01.040Z,20.88
2018-05-23T08:28:01.013Z,20.42
2018-05-23T08:29:01.000Z,20.61
2018-05-23T08:30:00.989Z,20.72
2018-05-23T08:31:00.975Z,20.70
2018-05-23T08:32:00.980Z,20.70
2018-05-23T08:33:00.952Z,20.61
2018-05-23T08:34:00.936Z,20.42
2018-05-23T08:35:00.926Z,20.52
2018-05-23T08:36:00.912Z,20.79
2018-05-23T08:37:00.918Z,20.94
2018-05-23T08:38:00.886Z,21.09
2018-05-23T08:39:00.876Z,21.06
2018-05-23T08:40:00.866Z,21.21
2018-05-23T08:41:00.851Z,21.24
2018-05-23T08:42:00.838Z,21.28
2018-05-23T08:43:00.843Z,21.27
2018-05-23T08:44:00.811Z,21.38
2018-05-23T08:45:00.798Z,21.43
2018-05-23T08:46:00.886Z,21.64
2018-05-23T08:47:00.790Z,21.58
2018-05-23T08:48:00.780Z,21.75
2018-05-23T08:49:00.751Z,21.67
2018-05-23T08:50:00.739Z,21.71
2018-05-23T08:51:00.726Z,21.84
2018-05-23T08:52:00.713Z,21.98
2018-05-23T08:53:00.711Z,22.00
2018-05-23T08:54:00.708Z,21.84
2018-05-23T08:55:00.710Z,21.72
2018-05-23T08:56:00.659Z,21.96
2018-05-23T08:57:00.653Z,22.03
2018-05-23T08:58:00.671Z,21.94
2018-05-23T08:59:00.676Z,22.07
2018-05-23T09:00:00.624Z,22.02
2018-05-23T09:01:00.601Z,21.98
2018-05-23T09:02:00.603Z,21.88
2018-05-23T09:03:00.592Z,21.91
2018-05-23T09:04:00.582Z,21.98
2018-05-23T09:05:00.567Z,22.00
2018-05-23T09:06:00.545Z,22.06
2018-05-23T09:07:00.541Z,22.02
2018-05-23T09:08:00.534Z,22.07
2018-05-23T09:09:00.510Z,22.07
2018-05-23T09:10:00.494Z,22.09
2018-05-23T09:11:00.487Z,22.25
2018-05-23T09:12:00.485Z,22.05
2018-05-23T09:13:00.459Z,21.79
2018-05-23T09:14:00.472Z,21.94
2018-05-23T09:15:00.438Z,21.71
2018-05-23T09:16:00.422Z,21.74
2018-05-23T09:17:00.416Z,21.79
2018-05-23T09:18:00.401Z,21.75
2018-05-23T09:19:00.398Z,21.86
2018-05-23T09:20:00.381Z,21.96
2018-05-23T09:21:00.367Z,21.90
2018-05-23T09:22:00.356Z,21.96
2018-05-23T09:23:00.342Z,21.96
2018-05-23T09:24:00.347Z,21.84
2018-05-23T09:25:00.317Z,21.94
2018-05-23T09:26:00.306Z,21.75
2018-05-23T09:27:00.295Z,21.71
2018-05-23T09:28:00.282Z,21.59
2018-05-23T09:29:00.271Z,21.67
2018-05-23T09:30:00.269Z,21.71
2018-05-23T09:31:00.247Z,21.64
2018-05-23T09:32:00.234Z,21.72
2018-05-23T09:33:00.224Z,21.84
2018-05-23T09:34:00.210Z,21.91
2018-05-23T09:35:00.214Z,21.94
2018-05-23T09:36:00.190Z,21.90
2018-05-23T09:37:00.176Z,22.09
2018-05-23T09:38:00.163Z,22.31
2018-05-23T09:39:00.151Z,22.45
2018-05-23T09:40:00.152Z,22.58
2018-05-23T09:41:00.127Z,22.55
2018-05-23T09:42:00.112Z,22.45
2018-05-23T09:43:00.104Z,22.60
2018-05-23T09:44:00.091Z,22.43
2018-05-23T09:45:00.097Z,22.33
2018-05-23T09:46:00.067Z,22.15
2018-05-23T09:47:00.054Z,22.25
2018-05-23T09:48:00.044Z,22.22
2018-05-23T09:49:00.034Z,22.21
2018-05-23T09:50:00.019Z,22.18
2018-05-23T09:51:00.019Z,22.45
2018-05-23T09:51:59.996Z,22.40
2018-05-23T09:52:59.985Z,22.24
2018-05-23T09:53:59.975Z,22.33
2018-05-23T09:55:00.045Z,21.83
2018-05-23T09:55:59.958Z,21.80
2018-05-23T09:56:59.940Z,21.62
2018-05-23T09:57:59.924Z,21.46
2018-05-23T09:58:59.915Z,21.52
2018-05-23T09:59:59.916Z,21.54
2018-05-23T10:00:59.906Z,21.54
2018-05-23T10:01:59.880Z,21.50
2018-05-23T10:02:59.864Z,21.52
2018-05-23T10:03:59.856Z,21.40
2018-05-23T10:04:59.854Z,21.37
2018-05-23T10:05:59.860Z,21.27
2018-05-23T10:06:59.820Z,21.01
2018-05-23T10:07:59.807Z,20.88
2018-05-23T10:08:59.793Z,20.76
2018-05-23T10:09:59.783Z,20.77
2018-05-23T10:10:59.770Z,20.91
2018-05-23T10:11:59.774Z,20.89
2018-05-23T10:12:59.748Z,20.79
2018-05-23T10:13:59.735Z,20.54
2018-05-23T10:14:59.730Z,20.66
2018-05-23T10:15:59.709Z,20.76
2018-05-23T10:16:59.718Z,20.59
2018-05-23T10:17:59.685Z,20.41
2018-05-23T10:18:59.671Z,20.17
2018-05-23T10:19:59.662Z,20.14
2018-05-23T10:20:59.650Z,20.21
2018-05-23T10:21:59.646Z,20.29
2018-05-23T10:22:59.623Z,20.18
2018-05-23T10:23:59.610Z,20.16
2018-05-23T10:24:59.599Z,20.05
2018-05-23T10:25:59.589Z,20.11
2018-05-23T10:26:59.581Z,20.26
2018-05-23T10:27:59.560Z,20.13
2018-05-23T10:28:59.546Z,20.10
2018-05-23T10:29:59.543Z,20.01
2018-05-23T10:30:59.524Z,19.99
2018-05-23T10:31:59.527Z,19.91
2018-05-23T10:32:59.497Z,19.86
2018-05-23T10:33:59.486Z,19.80
2018-05-23T10:34:59.475Z,19.84
2018-05-23T10:35:59.464Z,19.86
2018-05-23T10:36:59.446Z,19.87
2018-05-23T10:37:59.444Z,19.77
2018-05-23T10:38:59.475Z,19.59
2018-05-23T10:39:59.408Z,19.61
2018-05-23T10:40:59.394Z,19.56
2018-05-23T10:41:59.380Z,19.40
2018-05-23T10:42:59.384Z,19.36
2018-05-23T10:43:59.361Z,19.36
2018-05-23T10:44:59.344Z,19.33
2018-05-23T10:45:59.330Z,19.36
2018-05-23T10:46:59.319Z,19.32
2018-05-23T10:47:59.315Z,19.32
2018-05-23T10:48:59.291Z,19.14
2018-05-23T10:49:59.276Z,19.31
2018-05-23T10:50:59.263Z,19.22
2018-05-23T10:51:59.327Z,19.25
2018-05-23T10:52:59.258Z,19.26
2018-05-23T10:53:59.225Z,19.18
2018-05-23T10:54:59.211Z,19.06
2018-05-23T10:55:59.201Z,19.14
2018-05-23T10:56:59.185Z,19.08
2018-05-23T10:57:59.172Z,19.11
2018-05-23T10:58:59.170Z,18.99
2018-05-23T10:59:59.145Z,19.04
2018-05-23T11:00:59.133Z,18.99
2018-05-23T11:01:59.121Z,18.94
2018-05-23T11:02:59.138Z,19.02
2018-05-23T11:03:59.103Z,19.04
2018-05-23T11:04:59.078Z,18.98
2018-05-23T11:05:59.114Z,19.07
2018-05-23T11:06:59.052Z,19.08
2018-05-23T11:07:59.038Z,19.04
2018-05-23T11:08:59.090Z,19.11
2018-05-23T11:09:59.011Z,19.07
2018-05-23T11:10:58.998Z,19.07
2018-05-23T11:11:58.983Z,19.02
2018-05-23T11:12:58.976Z,19.02
2018-05-23T11:13:58.970Z,18.99
2018-05-23T11:14:59.025Z,18.92
2018-05-23T11:15:58.928Z,19.08
2018-05-23T11:16:58.917Z,19.07
2018-05-23T11:17:58.904Z,19.00
2018-05-23T11:18:58.903Z,19.08
2018-05-23T11:19:58.876Z,18.88
2018-05-23T11:20:58.864Z,18.95
2018-05-23T11:21:58.848Z,19.02
2018-05-23T11:22:58.835Z,18.99
2018-05-23T11:23:58.822Z,18.98
2018-05-23T11:24:58.816Z,19.10
2018-05-23T11:25:58.796Z,19.19
2018-05-23T11:26:58.781Z,19.19
2018-05-23T11:27:58.773Z,19.13
2018-05-23T11:28:58.764Z,19.37
2018-05-23T11:29:58.761Z,19.46
2018-05-23T11:30:58.727Z,19.54
2018-05-23T11:31:58.711Z,19.59
2018-05-23T11:32:58.705Z,19.68
2018-05-23T11:33:58.695Z,19.61
2018-05-23T11:34:58.715Z,19.62
2018-05-23T11:35:58.657Z,19.58
2018-05-23T11:36:58.680Z,19.58
2018-05-23T11:37:58.648Z,19.54
2018-05-23T11:38:58.643Z,19.66
2018-05-23T11:39:58.625Z,19.69
2018-05-23T11:40:58.620Z,19.56
2018-05-23T11:41:58.602Z,19.63
2018-05-23T11:42:58.593Z,19.74
2018-05-23T11:43:58.565Z,19.69
2018-05-23T11:44:58.546Z,19.58
2018-05-23T11:45:58.548Z,19.62
2018-05-23T11:46:58.518Z,19.56
2018-05-23T11:47:58.519Z,19.58
2018-05-23T11:48:58.507Z,19.47
2018-05-23T11:49:58.475Z,19.51
2018-05-23T11:50:58.503Z,19.43
2018-05-23T11:51:58.465Z,19.51
2018-05-23T11:52:58.479Z,19.62
2018-05-23T11:53:58.426Z,19.74
2018-05-23T11:54:58.431Z,19.73
2018-05-23T11:55:58.513Z,19.78
2018-05-23T11:56:58.387Z,19.80
2018-05-23T11:57:58.372Z,19.68
2018-05-23T11:58:58.363Z,19.55
2018-05-23T11:59:58.342Z,19.47
2018-05-23T12:00:58.355Z,19.55
2018-05-23T12:01:58.392Z,19.33
2018-05-23T12:02:58.322Z,19.32
2018-05-23T12:03:58.297Z,19.32
2018-05-23T12:04:58.302Z,19.47
2018-05-23T12:05:58.264Z,19.47
2018-05-23T12:06:58.266Z,19.48
2018-05-23T12:07:58.242Z,19.54
2018-05-23T12:08:58.232Z,19.51
2018-05-23T12:09:58.225Z,19.54
2018-05-23T12:10:58.208Z,19.63
2018-05-23T12:11:58.206Z,19.59
2018-05-23T12:12:58.171Z,19.65
2018-05-23T12:13:58.154Z,19.76
2018-05-23T12:14:58.145Z,19.68
2018-05-23T12:15:58.141Z,19.73
2018-05-23T12:16:58.128Z,19.73
2018-05-23T12:17:58.109Z,19.65
2018-05-23T12:18:58.100Z,19.59
2018-05-23T12:19:58.089Z,19.69
2018-05-23T12:20:58.068Z,19.73
2018-05-23T12:21:58.064Z,19.88
2018-05-23T12:22:58.038Z,19.62
2018-05-23T12:23:58.031Z,19.51
2018-05-23T12:24:58.018Z,19.59
2018-05-23T12:25:57.997Z,19.51
2018-05-23T12:26:57.988Z,19.59
2018-05-23T12:27:57.997Z,19.46
2018-05-23T12:28:57.960Z,19.58
2018-05-23T12:29:57.954Z,19.56
2018-05-23T12:30:57.945Z,19.74
2018-05-23T12:31:57.955Z,19.84
2018-05-23T12:32:57.901Z,19.73
2018-05-23T12:33:57.892Z,19.88
2018-05-23T12:34:57.920Z,19.87
2018-05-23T12:35:57.866Z,19.98
2018-05-23T12:36:57.850Z,19.92
2018-05-23T12:37:57.852Z,20.01
2018-05-23T12:38:57.854Z,19.81
2018-05-23T12:39:57.851Z,19.80
2018-05-23T12:40:57.838Z,19.84
2018-05-23T12:41:57.782Z,19.81
2018-05-23T12:42:57.788Z,19.81
2018-05-23T12:43:57.778Z,19.81
2018-05-23T12:44:57.743Z,19.96
2018-05-23T12:45:57.734Z,19.98
2018-05-23T12:46:57.749Z,20.08
2018-05-23T12:47:57.745Z,20.06
2018-05-23T12:48:57.693Z,20.16
2018-05-23T12:49:57.692Z,20.23
2018-05-23T12:50:57.668Z,20.23
2018-05-23T12:51:57.659Z,20.26
2018-05-23T12:52:57.642Z,20.32
2018-05-23T12:53:57.651Z,20.06